Crystal Hill, Virginia
Current Conditions -  °F | °C
As of 2:35 AM on Wednesday 26 Nov 2014 (Local Time) from KW78 Reporting Station
Overcast Overcast  
Wind Chill: 44°   Ceiling: 3800
Heat Index: 47°   Visibility: 7mi
Dew Point: 46°   Wind: 6mph
Humidity: 95%   Direction: 30°NNE
Pressure: 30.02"   Gusts: NA
Location:  36.86°N, 78.91°W
Report Text: KW78 260735Z AUTO 03005KT 7SM SCT009 BKN038 OVC070 08/08 A3002 RMK AO1 P0003 T00820075
Loading
Personal Weather Stations






























Interactive Weather Map New forecast layout! Learn more

10-Day Weather Forecast

Advertisements
Track Severe Weather on mobile